Location Rome, RM, ITALY

ob HAUTRON 172115Z AUTO 27003KT OVC 23/10 A3012 RMK SLPNO 

2019.06.17 2115 UTC
Wind from the W (266 degrees) at 3 MPH (3 KT) gusting to 0 MPH (0 KT)
Visibility    Mile(s)
Sky Conditions  overcast
Temperature 73.4 F (23 C)
Dew Point 50.8 F (10 C)
Relative Humidity 45%
Pressure   30.126 in. Hg (1020 hPa)
Rain  0.00 in.
Daily Rain  in.

Station Name  Rome Colli Aniene
Longitude, Latitude  41, 12
Elevation 60
Station URL http://home.hautron.com/weather
Software Type WeatherDisplay:10.10r